createdAt,value
2018-01-15T00:01:42.848Z,0.18
2018-01-15T00:02:42.884Z,0.03
2018-01-15T00:04:35.879Z,0.07
2018-01-15T00:05:35.904Z,0.07
2018-01-15T00:07:28.874Z,0.04
2018-01-15T00:08:28.930Z,-0.07
2018-01-15T00:10:21.928Z,-0.15
2018-01-15T00:11:21.951Z,-0.13
2018-01-15T00:13:14.923Z,-0.08
2018-01-15T00:14:14.977Z,-0.03
2018-01-15T00:16:07.969Z,0.07
2018-01-15T00:17:08.002Z,-0.06
2018-01-15T00:19:00.992Z,0.07
2018-01-15T00:20:01.026Z,0.08
2018-01-15T00:21:53.995Z,-0.08
2018-01-15T00:22:54.050Z,-0.08
2018-01-15T00:24:47.040Z,-0.10
2018-01-15T00:25:47.073Z,-0.14
2018-01-15T00:27:40.046Z,-0.13
2018-01-15T00:28:40.097Z,-0.15
2018-01-15T00:30:33.090Z,-0.15
2018-01-15T00:31:33.125Z,-0.14
2018-01-15T00:33:26.097Z,-0.13
2018-01-15T00:34:26.150Z,-0.11
2018-01-15T00:36:19.145Z,-0.15
2018-01-15T00:37:19.181Z,-0.13
2018-01-15T00:39:12.178Z,-0.15
2018-01-15T00:40:12.211Z,-0.21
2018-01-15T00:42:05.202Z,-0.20
2018-01-15T00:43:05.237Z,-0.20
2018-01-15T00:44:58.226Z,-0.31
2018-01-15T00:45:58.260Z,-0.29
2018-01-15T00:47:51.248Z,-0.23
2018-01-15T00:48:51.289Z,-0.32
2018-01-15T00:50:44.288Z,-0.31
2018-01-15T00:51:44.325Z,-0.32
2018-01-15T00:53:37.298Z,-0.32
2018-01-15T00:54:37.348Z,-0.35
2018-01-15T00:56:30.340Z,-0.46
2018-01-15T00:57:30.373Z,-0.44
2018-01-15T00:59:23.372Z,-0.46
2018-01-15T01:00:23.401Z,-0.46
2018-01-15T01:02:16.375Z,-0.43
2018-01-15T01:03:16.429Z,-0.41
2018-01-15T01:05:09.421Z,-0.41
2018-01-15T01:06:09.457Z,-0.28
2018-01-15T01:08:02.425Z,-0.31
2018-01-15T01:09:02.476Z,-0.28
2018-01-15T01:10:55.487Z,-0.29
2018-01-15T01:11:55.506Z,-0.28
2018-01-15T01:13:48.472Z,-0.29
2018-01-15T01:14:48.526Z,-0.21
2018-01-15T01:16:41.518Z,-0.32
2018-01-15T01:17:41.553Z,-0.47
2018-01-15T01:19:34.591Z,-0.47
2018-01-15T01:20:34.576Z,-0.39
2018-01-15T01:22:27.547Z,-0.34
2018-01-15T01:23:27.601Z,-0.23
2018-01-15T01:25:20.593Z,-0.21
2018-01-15T01:26:20.628Z,-0.21
2018-01-15T01:28:13.597Z,-0.20
2018-01-15T01:29:13.650Z,-0.15
2018-01-15T01:31:06.646Z,0.00
2018-01-15T01:32:06.678Z,0.00
2018-01-15T01:33:59.656Z,-0.02
2018-01-15T01:34:59.712Z,0.03
2018-01-15T01:36:52.703Z,0.08
2018-01-15T01:37:52.736Z,0.18
2018-01-15T01:39:45.735Z,0.10
2018-01-15T01:40:45.761Z,0.15
2018-01-15T01:42:38.731Z,0.19
2018-01-15T01:43:38.785Z,0.03
2018-01-15T01:45:31.781Z,0.22
2018-01-15T01:46:31.808Z,0.22
2018-01-15T01:48:24.780Z,0.19
2018-01-15T01:49:24.833Z,0.26
2018-01-15T01:51:17.827Z,0.23
2018-01-15T01:52:17.860Z,0.25
2018-01-15T01:54:10.832Z,0.18
2018-01-15T01:55:10.885Z,0.21
2018-01-15T01:57:03.874Z,0.23
2018-01-15T01:58:03.914Z,0.22
2018-01-15T01:59:56.899Z,0.23
2018-01-15T02:00:56.933Z,0.23
2018-01-15T02:02:49.904Z,0.12
2018-01-15T02:03:49.958Z,0.15
2018-01-15T02:05:42.949Z,0.08
2018-01-15T02:06:42.987Z,0.05
2018-01-15T02:08:35.955Z,0.10
2018-01-15T02:09:36.006Z,0.11
2018-01-15T02:11:28.996Z,0.25
2018-01-15T02:12:29.028Z,0.26
2018-01-15T02:14:22.000Z,0.23
2018-01-15T02:15:22.054Z,0.28
2018-01-15T02:17:15.046Z,0.36
2018-01-15T02:18:15.077Z,0.37
2018-01-15T02:20:08.609Z,0.40
2018-01-15T02:21:08.609Z,0.41
2018-01-15T02:23:01.586Z,0.52
2018-01-15T02:24:01.641Z,0.43
2018-01-15T02:25:54.630Z,0.52
2018-01-15T02:26:54.663Z,0.49
2018-01-15T02:28:47.643Z,0.65
2018-01-15T02:29:47.701Z,0.62
2018-01-15T02:31:40.690Z,0.83
2018-01-15T02:32:40.724Z,0.81
2018-01-15T02:34:33.691Z,0.98
2018-01-15T02:35:33.744Z,0.98
2018-01-15T02:37:26.737Z,1.19
2018-01-15T02:38:26.769Z,1.22
2018-01-15T02:40:19.779Z,1.26
2018-01-15T02:41:19.797Z,1.35
2018-01-15T02:43:12.767Z,1.41
2018-01-15T02:44:12.821Z,1.37
2018-01-15T02:46:05.813Z,1.50
2018-01-15T02:47:05.850Z,1.53
2018-01-15T02:48:59.409Z,1.63
2018-01-15T02:49:58.882Z,1.67
2018-01-15T02:51:51.870Z,1.70
2018-01-15T02:52:51.905Z,1.67
2018-01-15T02:54:44.876Z,1.77
2018-01-15T02:55:45.007Z,1.81
2018-01-15T02:57:37.920Z,1.91
2018-01-15T02:58:37.953Z,1.97
2018-01-15T03:00:30.945Z,2.08
2018-01-15T03:01:30.986Z,2.02
2018-01-15T03:03:23.951Z,2.13
2018-01-15T03:04:24.019Z,2.18
2018-01-15T03:06:17.030Z,2.25
2018-01-15T03:07:17.028Z,2.29
2018-01-15T03:09:10.006Z,2.29
2018-01-15T03:10:10.053Z,2.28
2018-01-15T03:12:03.059Z,2.33
2018-01-15T03:13:03.080Z,2.18
2018-01-15T03:14:56.056Z,2.17
2018-01-15T03:15:56.106Z,2.24
2018-01-15T03:17:49.098Z,2.18
2018-01-15T03:18:49.130Z,2.26
2018-01-15T03:20:42.636Z,2.20
2018-01-15T03:21:42.662Z,2.28
2018-01-15T03:23:35.636Z,2.29
2018-01-15T03:24:35.690Z,2.33
2018-01-15T03:26:28.692Z,2.43
2018-01-15T03:27:28.724Z,2.38
2018-01-15T03:29:21.695Z,2.35
2018-01-15T03:30:21.749Z,2.39
2018-01-15T03:32:14.745Z,2.36
2018-01-15T03:33:14.781Z,2.26
2018-01-15T03:35:07.761Z,2.28
2018-01-15T03:36:07.812Z,2.31
2018-01-15T03:38:00.809Z,2.15
2018-01-15T03:39:00.863Z,2.24
2018-01-15T03:40:53.843Z,2.18
2018-01-15T03:41:53.880Z,2.17
2018-01-15T03:43:46.851Z,2.06
2018-01-15T03:44:46.905Z,2.00
2018-01-15T03:46:39.901Z,1.99
2018-01-15T03:47:39.935Z,1.97
2018-01-15T03:49:32.924Z,2.00
2018-01-15T03:50:32.960Z,2.04
2018-01-15T03:52:25.952Z,2.04
2018-01-15T03:53:25.985Z,2.08
2018-01-15T03:55:18.954Z,2.00
2018-01-15T03:56:19.009Z,2.08
2018-01-15T03:58:12.002Z,1.99
2018-01-15T03:59:12.034Z,2.00
2018-01-15T04:01:05.028Z,2.06
2018-01-15T04:02:05.062Z,1.91
2018-01-15T04:03:58.039Z,1.97
2018-01-15T04:04:58.089Z,1.92
2018-01-15T04:06:51.081Z,1.78
2018-01-15T04:07:51.120Z,1.81
2018-01-15T04:09:44.089Z,1.88
2018-01-15T04:10:44.144Z,1.91
2018-01-15T04:12:37.136Z,1.95
2018-01-15T04:13:37.168Z,1.97
2018-01-15T04:15:30.150Z,1.91
2018-01-15T04:16:30.200Z,1.91
2018-01-15T04:18:23.196Z,1.95
2018-01-15T04:19:23.229Z,1.95
2018-01-15T04:21:16.224Z,1.89
2018-01-15T04:22:16.289Z,1.89
2018-01-15T04:24:09.227Z,1.87
2018-01-15T04:25:09.280Z,1.92
2018-01-15T04:27:02.276Z,1.89
2018-01-15T04:28:02.308Z,1.80
2018-01-15T04:29:55.290Z,1.85
2018-01-15T04:30:55.346Z,1.88
2018-01-15T04:32:48.335Z,1.91
2018-01-15T04:33:48.368Z,1.78
2018-01-15T04:35:41.347Z,1.99
2018-01-15T04:36:41.396Z,1.92
2018-01-15T04:38:34.441Z,2.08
2018-01-15T04:39:34.428Z,2.10
2018-01-15T04:41:27.415Z,2.10
2018-01-15T04:42:27.446Z,2.14
2018-01-15T04:44:20.418Z,2.15
2018-01-15T04:45:20.487Z,2.17
2018-01-15T04:47:13.485Z,2.17
2018-01-15T04:48:13.521Z,2.24
2018-01-15T04:50:06.483Z,2.18
2018-01-15T04:51:06.582Z,2.15
2018-01-15T04:52:59.533Z,2.25
2018-01-15T04:53:59.561Z,2.18
2018-01-15T04:55:52.544Z,2.26
2018-01-15T04:56:52.627Z,2.25
2018-01-15T04:58:45.588Z,2.33
2018-01-15T04:59:45.626Z,2.32
2018-01-15T05:01:38.618Z,2.33
2018-01-15T05:02:38.674Z,2.29
2018-01-15T05:04:31.652Z,2.38
2018-01-15T05:05:31.682Z,2.43
2018-01-15T05:07:24.719Z,2.42
2018-01-15T05:08:24.712Z,2.42
2018-01-15T05:10:17.704Z,2.51
2018-01-15T05:11:17.762Z,2.51
2018-01-15T05:13:10.791Z,2.54
2018-01-15T05:14:10.783Z,2.53
2018-01-15T05:16:03.739Z,2.51
2018-01-15T05:17:03.792Z,2.54
2018-01-15T05:18:56.786Z,2.50
2018-01-15T05:19:56.821Z,2.51
2018-01-15T05:21:49.814Z,2.68
2018-01-15T05:22:49.847Z,2.65
2018-01-15T05:24:42.836Z,2.57
2018-01-15T05:25:42.923Z,2.65
2018-01-15T05:27:35.887Z,2.67
2018-01-15T05:28:35.902Z,2.64
2018-01-15T05:30:28.871Z,2.57
2018-01-15T05:31:28.957Z,2.57
2018-01-15T05:33:21.919Z,2.69
2018-01-15T05:34:21.951Z,2.68
2018-01-15T05:36:14.955Z,2.68
2018-01-15T05:37:14.982Z,2.71
2018-01-15T05:39:08.028Z,2.77
2018-01-15T05:40:08.022Z,2.85
2018-01-15T05:42:01.013Z,2.93
2018-01-15T05:43:01.040Z,3.01
2018-01-15T05:44:54.009Z,3.03
2018-01-15T05:45:54.162Z,2.97
2018-01-15T05:47:47.258Z,3.11
2018-01-15T05:48:47.200Z,3.14
2018-01-15T05:50:40.191Z,3.19
2018-01-15T05:51:40.331Z,3.16
2018-01-15T05:53:33.357Z,3.14
2018-01-15T05:54:33.527Z,3.16
2018-01-15T05:56:26.288Z,3.21
2018-01-15T05:57:26.503Z,3.16
2018-01-15T05:59:19.480Z,3.28
2018-01-15T06:00:19.424Z,3.28
2018-01-15T06:02:12.319Z,3.29
2018-01-15T06:03:12.381Z,3.28
2018-01-15T06:05:05.290Z,3.29
2018-01-15T06:06:05.366Z,3.32
2018-01-15T06:07:58.311Z,3.37
2018-01-15T06:08:58.327Z,3.28
2018-01-15T06:10:51.303Z,3.36
2018-01-15T06:11:51.372Z,3.37
2018-01-15T06:13:44.428Z,3.34
2018-01-15T06:14:44.447Z,3.31
2018-01-15T06:16:37.390Z,3.36
2018-01-15T06:17:37.439Z,3.40
2018-01-15T06:19:30.478Z,3.48
2018-01-15T06:20:30.502Z,3.45
2018-01-15T06:22:23.582Z,3.55
2018-01-15T06:23:23.506Z,3.50
2018-01-15T06:25:16.442Z,3.50
2018-01-15T06:26:16.552Z,3.53
2018-01-15T06:28:09.511Z,3.59
2018-01-15T06:29:09.647Z,3.55
2018-01-15T06:31:02.573Z,3.58
2018-01-15T06:32:02.893Z,3.62
2018-01-15T06:33:55.583Z,3.63
2018-01-15T06:34:55.668Z,3.56
2018-01-15T06:36:48.658Z,3.60
2018-01-15T06:37:48.676Z,3.76
2018-01-15T06:39:41.696Z,3.74
2018-01-15T06:40:41.768Z,3.70
2018-01-15T06:42:34.699Z,3.76
2018-01-15T06:43:34.811Z,3.83
2018-01-15T06:45:27.741Z,3.80
2018-01-15T06:46:27.789Z,3.78
2018-01-15T06:48:20.774Z,3.81
2018-01-15T06:49:20.787Z,3.87
2018-01-15T06:51:13.820Z,3.91
2018-01-15T06:52:13.857Z,3.86
2018-01-15T06:54:06.855Z,3.83
2018-01-15T06:55:06.882Z,3.81
2018-01-15T06:56:59.962Z,3.91
2018-01-15T06:57:59.923Z,3.80
2018-01-15T06:59:52.936Z,3.84
2018-01-15T07:00:52.989Z,3.92
2018-01-15T07:02:45.968Z,3.91
2018-01-15T07:03:45.927Z,3.96
2018-01-15T07:05:39.000Z,3.94
2018-01-15T07:06:39.011Z,4.01
2018-01-15T07:08:32.016Z,4.05
2018-01-15T07:09:32.049Z,4.02
2018-01-15T07:11:25.075Z,4.05
2018-01-15T07:12:25.052Z,4.13
2018-01-15T07:14:18.166Z,4.19
2018-01-15T07:15:18.108Z,4.14
2018-01-15T07:17:11.015Z,4.14
2018-01-15T07:18:11.084Z,4.17
2018-01-15T07:20:04.648Z,4.16
2018-01-15T07:21:04.735Z,4.19
2018-01-15T07:22:57.711Z,4.16
2018-01-15T07:23:57.792Z,4.14
2018-01-15T07:25:50.721Z,4.35
2018-01-15T07:26:50.698Z,4.38
2018-01-15T07:28:43.684Z,4.41
2018-01-15T07:29:43.780Z,4.31
2018-01-15T07:31:36.755Z,4.32
2018-01-15T07:32:36.851Z,4.40
2018-01-15T07:34:29.878Z,4.37
2018-01-15T07:35:29.762Z,4.44
2018-01-15T07:37:22.783Z,4.44
2018-01-15T07:38:22.805Z,4.49
2018-01-15T07:40:15.791Z,4.55
2018-01-15T07:41:15.851Z,4.60
2018-01-15T07:43:08.868Z,4.60
2018-01-15T07:44:08.942Z,4.62
2018-01-15T07:46:01.919Z,4.59
2018-01-15T07:47:01.988Z,4.60
2018-01-15T07:48:54.923Z,4.59
2018-01-15T07:49:54.945Z,4.62
2018-01-15T07:51:47.944Z,4.67
2018-01-15T07:52:48.102Z,4.60
2018-01-15T07:54:40.978Z,4.63
2018-01-15T07:55:41.062Z,4.74
2018-01-15T07:57:34.022Z,4.80
2018-01-15T07:58:34.095Z,4.78
2018-01-15T08:00:27.074Z,4.93
2018-01-15T08:01:27.110Z,4.90
2018-01-15T08:03:20.157Z,4.84
2018-01-15T08:04:20.168Z,4.97
2018-01-15T08:06:13.071Z,4.92
2018-01-15T08:07:13.106Z,4.90
2018-01-15T08:09:06.126Z,4.93
2018-01-15T08:10:06.221Z,4.93
2018-01-15T08:11:59.248Z,4.93
2018-01-15T08:12:59.244Z,4.87
2018-01-15T08:14:52.281Z,4.94
2018-01-15T08:15:52.236Z,4.94
2018-01-15T08:17:45.254Z,4.92
2018-01-15T08:18:45.284Z,4.97
2018-01-15T08:20:38.759Z,5.00
2018-01-15T08:21:38.837Z,4.92
2018-01-15T08:23:31.760Z,4.87
2018-01-15T08:24:31.869Z,5.04
2018-01-15T08:26:24.780Z,4.97
2018-01-15T08:27:24.893Z,4.97
2018-01-15T08:29:17.822Z,4.99
2018-01-15T08:30:17.899Z,4.96
2018-01-15T08:32:10.855Z,5.00
2018-01-15T08:33:10.903Z,4.96
2018-01-15T08:35:03.978Z,5.10
2018-01-15T08:36:03.951Z,5.10
2018-01-15T08:37:56.912Z,5.10
2018-01-15T08:38:56.988Z,5.07
2018-01-15T08:40:50.034Z,5.04
2018-01-15T08:41:50.009Z,5.04
2018-01-15T08:43:43.094Z,5.08
2018-01-15T08:44:43.062Z,5.11
2018-01-15T08:46:36.047Z,5.15
2018-01-15T08:47:36.130Z,5.12
2018-01-15T08:49:29.043Z,5.12
2018-01-15T08:50:29.074Z,5.17
2018-01-15T08:52:22.124Z,5.28
2018-01-15T08:53:22.157Z,5.28
2018-01-15T08:55:15.114Z,5.26
2018-01-15T08:56:15.177Z,5.28
2018-01-15T08:58:08.173Z,5.29
2018-01-15T08:59:08.201Z,5.33
2018-01-15T09:01:01.248Z,5.36
2018-01-15T09:02:01.289Z,5.33
2018-01-15T09:03:54.202Z,5.36
2018-01-15T09:04:54.270Z,5.36
2018-01-15T09:06:47.298Z,5.33
2018-01-15T09:07:47.308Z,5.41
2018-01-15T09:09:40.400Z,5.38
2018-01-15T09:10:40.367Z,5.39
2018-01-15T09:12:33.360Z,5.41
2018-01-15T09:13:33.432Z,5.39
2018-01-15T09:15:26.374Z,5.43
2018-01-15T09:16:26.386Z,5.38
2018-01-15T09:18:19.455Z,5.59
2018-01-15T09:19:19.454Z,5.62
2018-01-15T09:21:12.992Z,5.51
2018-01-15T09:22:12.989Z,5.53
2018-01-15T09:24:05.995Z,5.62
2018-01-15T09:25:05.980Z,5.62
2018-01-15T09:26:58.946Z,5.69
2018-01-15T09:27:59.086Z,5.69
2018-01-15T09:29:52.060Z,5.73
2018-01-15T09:30:53.053Z,5.72
2018-01-15T09:32:45.071Z,5.80
2018-01-15T09:33:45.107Z,5.80
2018-01-15T09:35:38.176Z,5.87
2018-01-15T09:36:38.205Z,5.83
2018-01-15T09:38:31.093Z,5.89
2018-01-15T09:39:31.187Z,5.93
2018-01-15T09:41:24.130Z,6.01
2018-01-15T09:42:24.229Z,6.01
2018-01-15T09:44:17.178Z,6.14
2018-01-15T09:45:17.195Z,6.08
2018-01-15T09:47:10.250Z,6.01
2018-01-15T09:48:10.240Z,6.22
2018-01-15T09:50:03.292Z,6.24
2018-01-15T09:51:03.240Z,6.22
2018-01-15T09:52:56.274Z,6.30
2018-01-15T09:53:56.319Z,6.31
2018-01-15T09:55:49.308Z,6.27
2018-01-15T09:56:49.338Z,6.28
2018-01-15T09:58:42.354Z,6.33
2018-01-15T09:59:42.387Z,6.36
2018-01-15T10:01:35.374Z,6.39
2018-01-15T10:02:35.434Z,6.51
2018-01-15T10:04:28.461Z,6.59
2018-01-15T10:05:28.417Z,6.54
2018-01-15T10:07:21.924Z,6.46
2018-01-15T10:08:21.562Z,6.60
2018-01-15T10:10:14.628Z,6.62
2018-01-15T10:11:14.520Z,6.59
2018-01-15T10:13:07.486Z,6.62
2018-01-15T10:14:07.695Z,6.59
2018-01-15T10:16:00.518Z,6.54
2018-01-15T10:17:00.604Z,6.54
2018-01-15T10:18:53.546Z,6.56
2018-01-15T10:19:53.662Z,6.57
2018-01-15T10:21:46.618Z,6.57
2018-01-15T10:22:46.696Z,6.59
2018-01-15T10:24:39.660Z,6.63
2018-01-15T10:25:39.689Z,6.59
2018-01-15T10:27:32.631Z,6.70
2018-01-15T10:28:32.730Z,6.66
2018-01-15T10:30:25.734Z,6.60
2018-01-15T10:31:25.747Z,6.79
2018-01-15T10:33:18.724Z,6.81
2018-01-15T10:34:18.791Z,6.77
2018-01-15T10:36:11.784Z,6.64
2018-01-15T10:37:11.865Z,6.77
2018-01-15T10:39:04.784Z,6.77
2018-01-15T10:40:04.850Z,6.74
2018-01-15T10:41:57.817Z,6.75
2018-01-15T10:42:57.895Z,6.69
2018-01-15T10:44:50.915Z,6.78
2018-01-15T10:45:50.934Z,6.79
2018-01-15T10:47:43.933Z,6.88
2018-01-15T10:48:43.974Z,6.92
2018-01-15T10:50:36.939Z,6.96
2018-01-15T10:51:37.012Z,6.95
2018-01-15T10:53:29.955Z,7.00
2018-01-15T10:54:30.036Z,7.02
2018-01-15T10:56:23.069Z,7.03
2018-01-15T10:57:23.124Z,7.20
2018-01-15T10:59:16.023Z,7.14
2018-01-15T11:00:16.093Z,7.15
2018-01-15T11:02:09.064Z,7.25
2018-01-15T11:03:09.209Z,7.18
2018-01-15T11:05:02.143Z,7.31
2018-01-15T11:06:02.214Z,7.29
2018-01-15T11:07:55.166Z,7.31
2018-01-15T11:08:55.211Z,7.35
2018-01-15T11:10:48.268Z,7.39
2018-01-15T11:11:48.237Z,7.36
2018-01-15T11:13:41.213Z,7.39
2018-01-15T11:14:41.339Z,7.45
2018-01-15T11:16:34.245Z,7.40
2018-01-15T11:17:34.297Z,7.45
2018-01-15T11:19:27.300Z,7.42
2018-01-15T11:20:27.321Z,7.48
2018-01-15T11:22:20.301Z,7.36
2018-01-15T11:23:20.361Z,7.40
2018-01-15T11:25:13.402Z,7.40
2018-01-15T11:26:13.422Z,7.38
2018-01-15T11:28:06.393Z,7.33
2018-01-15T11:29:06.464Z,7.40
2018-01-15T11:30:59.508Z,7.39
2018-01-15T11:31:59.489Z,7.40
2018-01-15T11:33:52.546Z,7.40
2018-01-15T11:34:52.480Z,7.45
2018-01-15T11:36:45.519Z,7.40
2018-01-15T11:37:45.543Z,7.36
2018-01-15T11:39:38.636Z,7.43
2018-01-15T11:40:38.597Z,7.48
2018-01-15T11:42:31.622Z,7.60
2018-01-15T11:43:31.670Z,7.60
2018-01-15T11:45:24.638Z,7.66
2018-01-15T11:46:24.643Z,7.69
2018-01-15T11:48:17.625Z,7.76
2018-01-15T11:49:17.733Z,7.76
2018-01-15T11:51:10.713Z,7.61
2018-01-15T11:52:10.738Z,7.70
2018-01-15T11:54:03.684Z,7.75
2018-01-15T11:55:03.847Z,7.70
2018-01-15T11:56:56.802Z,7.70
2018-01-15T11:57:56.801Z,7.73
2018-01-15T11:59:49.743Z,7.63
2018-01-15T12:00:49.852Z,7.66
2018-01-15T12:02:42.904Z,7.67
2018-01-15T12:03:42.870Z,7.67
2018-01-15T12:05:36.082Z,7.66
2018-01-15T12:06:35.910Z,7.60
2018-01-15T12:08:28.926Z,7.63
2018-01-15T12:09:28.943Z,7.60
2018-01-15T12:11:21.916Z,7.60
2018-01-15T12:12:21.974Z,7.66
2018-01-15T12:14:14.933Z,7.70
2018-01-15T12:15:14.986Z,7.63
2018-01-15T12:17:07.978Z,7.75
2018-01-15T12:18:08.050Z,7.79
2018-01-15T12:20:01.018Z,7.75
2018-01-15T12:21:01.054Z,7.82
2018-01-15T12:22:54.056Z,7.77
2018-01-15T12:23:54.102Z,7.83
2018-01-15T12:25:47.110Z,7.85
2018-01-15T12:26:47.139Z,7.82
2018-01-15T12:28:40.135Z,7.94
2018-01-15T12:29:40.184Z,7.97
2018-01-15T12:31:33.203Z,8.01
2018-01-15T12:32:33.273Z,7.97
2018-01-15T12:34:26.208Z,8.01
2018-01-15T12:35:26.280Z,7.95
2018-01-15T12:37:19.310Z,7.95
2018-01-15T12:38:19.330Z,8.03
2018-01-15T12:40:12.286Z,7.98
2018-01-15T12:41:12.359Z,8.03
2018-01-15T12:43:05.344Z,8.05
2018-01-15T12:44:05.382Z,8.06
2018-01-15T12:45:58.345Z,8.01
2018-01-15T12:46:58.380Z,7.94
2018-01-15T12:48:51.535Z,7.94
2018-01-15T12:49:51.549Z,7.93
2018-01-15T12:51:44.534Z,7.88
2018-01-15T12:52:44.460Z,7.94
2018-01-15T12:54:37.454Z,7.97
2018-01-15T12:55:37.494Z,7.93
2018-01-15T12:57:30.493Z,7.93
2018-01-15T12:58:30.528Z,7.77
2018-01-15T13:00:23.506Z,7.88
2018-01-15T13:01:23.561Z,7.90
2018-01-15T13:03:16.563Z,7.91
2018-01-15T13:04:16.600Z,7.93
2018-01-15T13:06:09.596Z,7.95
2018-01-15T13:07:09.634Z,7.98
2018-01-15T13:09:02.613Z,7.98
2018-01-15T13:10:02.671Z,7.87
2018-01-15T13:11:55.665Z,8.00
2018-01-15T13:12:55.702Z,7.85
2018-01-15T13:14:48.681Z,7.94
2018-01-15T13:15:48.735Z,7.88
2018-01-15T13:17:41.796Z,7.95
2018-01-15T13:18:41.832Z,7.88
2018-01-15T13:20:35.322Z,7.93
2018-01-15T13:21:35.373Z,7.85
2018-01-15T13:23:28.378Z,7.90
2018-01-15T13:24:28.414Z,7.95
2018-01-15T13:26:21.429Z,7.97
2018-01-15T13:27:21.484Z,7.97
2018-01-15T13:29:14.430Z,7.88
2018-01-15T13:30:14.508Z,7.93
2018-01-15T13:32:07.527Z,7.80
2018-01-15T13:33:07.541Z,7.87
2018-01-15T13:35:00.568Z,7.72
2018-01-15T13:36:00.557Z,7.70
2018-01-15T13:37:53.578Z,7.67
2018-01-15T13:38:53.612Z,7.75
2018-01-15T13:40:46.595Z,7.70
2018-01-15T13:41:46.624Z,7.72
2018-01-15T13:43:39.639Z,7.63
2018-01-15T13:44:39.734Z,7.72
2018-01-15T13:46:32.699Z,7.66
2018-01-15T13:47:32.729Z,7.61
2018-01-15T13:49:25.724Z,7.63
2018-01-15T13:50:25.791Z,7.63
2018-01-15T13:52:18.816Z,7.51
2018-01-15T13:53:18.945Z,7.50
2018-01-15T13:55:11.872Z,7.51
2018-01-15T13:56:11.985Z,7.47
2018-01-15T13:58:04.855Z,7.36
2018-01-15T13:59:04.903Z,7.43
2018-01-15T14:00:57.854Z,7.42
2018-01-15T14:01:57.902Z,7.36
2018-01-15T14:03:50.929Z,7.29
2018-01-15T14:04:50.974Z,7.23
2018-01-15T14:06:44.089Z,7.32
2018-01-15T14:07:44.034Z,7.25
2018-01-15T14:09:37.016Z,7.33
2018-01-15T14:10:37.029Z,7.25
2018-01-15T14:12:30.031Z,7.29
2018-01-15T14:13:30.070Z,7.25
2018-01-15T14:15:23.076Z,7.21
2018-01-15T14:16:23.152Z,7.15
2018-01-15T14:18:16.159Z,7.14
2018-01-15T14:19:16.136Z,7.14
2018-01-15T14:21:09.744Z,7.13
2018-01-15T14:22:09.702Z,7.14
2018-01-15T14:24:02.681Z,7.20
2018-01-15T14:25:02.741Z,7.02
2018-01-15T14:26:55.711Z,7.00
2018-01-15T14:27:55.742Z,7.07
2018-01-15T14:29:48.724Z,7.03
2018-01-15T14:30:48.807Z,6.95
2018-01-15T14:32:41.816Z,6.99
2018-01-15T14:33:41.861Z,6.89
2018-01-15T14:35:34.801Z,6.95
2018-01-15T14:36:34.876Z,6.89
2018-01-15T14:38:27.856Z,6.88
2018-01-15T14:39:27.898Z,6.84
2018-01-15T14:41:20.899Z,6.88
2018-01-15T14:42:20.955Z,6.84
2018-01-15T14:44:13.940Z,6.81
2018-01-15T14:45:13.985Z,6.89
2018-01-15T14:47:06.972Z,6.84
2018-01-15T14:48:06.991Z,6.82
2018-01-15T14:50:00.014Z,6.77
2018-01-15T14:51:00.036Z,6.82
2018-01-15T14:52:53.036Z,6.84
2018-01-15T14:53:53.096Z,6.77
2018-01-15T14:55:46.054Z,6.82
2018-01-15T14:56:46.145Z,6.78
2018-01-15T14:58:39.156Z,6.77
2018-01-15T14:59:39.165Z,6.78
2018-01-15T15:01:32.171Z,6.74
2018-01-15T15:02:32.215Z,6.78
2018-01-15T15:04:25.197Z,6.75
2018-01-15T15:05:25.259Z,6.74
2018-01-15T15:07:18.224Z,6.75
2018-01-15T15:08:18.259Z,6.75
2018-01-15T15:10:11.244Z,6.74
2018-01-15T15:11:11.295Z,6.74
2018-01-15T15:13:04.299Z,6.70
2018-01-15T15:14:04.336Z,6.69
2018-01-15T15:15:57.339Z,6.74
2018-01-15T15:16:57.366Z,6.72
2018-01-15T15:18:50.366Z,6.67
2018-01-15T15:19:50.398Z,6.70
2018-01-15T15:21:43.386Z,6.66
2018-01-15T15:22:43.633Z,6.67
2018-01-15T15:24:36.431Z,6.70
2018-01-15T15:25:36.468Z,6.75
2018-01-15T15:27:29.473Z,6.74
2018-01-15T15:28:29.510Z,6.74
2018-01-15T15:30:22.494Z,6.69
2018-01-15T15:31:22.552Z,6.77
2018-01-15T15:33:15.550Z,6.74
2018-01-15T15:34:15.607Z,6.67
2018-01-15T15:36:08.562Z,6.69
2018-01-15T15:37:08.649Z,6.66
2018-01-15T15:39:01.616Z,6.74
2018-01-15T15:40:01.651Z,6.72
2018-01-15T15:41:54.627Z,6.66
2018-01-15T15:42:54.685Z,6.70
2018-01-15T15:44:47.681Z,6.75
2018-01-15T15:45:47.716Z,6.74
2018-01-15T15:47:40.721Z,6.69
2018-01-15T15:48:40.761Z,6.74
2018-01-15T15:50:33.803Z,6.79
2018-01-15T15:51:33.815Z,6.74
2018-01-15T15:53:26.797Z,6.74
2018-01-15T15:54:26.828Z,6.77
2018-01-15T15:56:19.791Z,6.78
2018-01-15T15:57:20.017Z,6.74
2018-01-15T15:59:12.843Z,6.70
2018-01-15T16:00:12.902Z,6.81
2018-01-15T16:02:05.953Z,6.75
2018-01-15T16:03:05.969Z,6.70
2018-01-15T16:04:58.918Z,6.74
2018-01-15T16:05:58.976Z,6.77
2018-01-15T16:07:52.016Z,6.77
2018-01-15T16:08:51.991Z,6.77
2018-01-15T16:10:44.987Z,6.74
2018-01-15T16:11:45.046Z,6.72
2018-01-15T16:13:38.043Z,6.72
2018-01-15T16:14:38.059Z,6.72
2018-01-15T16:16:31.036Z,6.77
2018-01-15T16:17:31.091Z,6.70
2018-01-15T16:19:24.094Z,6.72
2018-01-15T16:20:24.152Z,6.64
2018-01-15T16:22:17.098Z,6.69
2018-01-15T16:23:17.195Z,6.69
2018-01-15T16:25:10.155Z,6.70
2018-01-15T16:26:10.186Z,6.66
2018-01-15T16:28:03.240Z,6.60
2018-01-15T16:29:03.217Z,6.54
2018-01-15T16:30:56.199Z,6.54
2018-01-15T16:31:56.252Z,6.46
2018-01-15T16:33:49.255Z,6.54
2018-01-15T16:34:49.292Z,6.52
2018-01-15T16:36:42.277Z,6.56
2018-01-15T16:37:42.329Z,6.51
2018-01-15T16:39:35.328Z,6.57
2018-01-15T16:40:35.363Z,6.59
2018-01-15T16:42:28.385Z,6.59
2018-01-15T16:43:28.404Z,6.64
2018-01-15T16:45:21.415Z,6.66
2018-01-15T16:46:21.453Z,6.63
2018-01-15T16:48:14.437Z,6.62
2018-01-15T16:49:14.504Z,6.64
2018-01-15T16:51:07.483Z,6.66
2018-01-15T16:52:07.579Z,6.72
2018-01-15T16:54:00.529Z,6.64
2018-01-15T16:55:00.552Z,6.63
2018-01-15T16:56:53.537Z,6.67
2018-01-15T16:57:53.584Z,6.70
2018-01-15T16:59:46.602Z,6.66
2018-01-15T17:00:46.616Z,6.62
2018-01-15T17:02:39.594Z,6.67
2018-01-15T17:03:39.654Z,6.67
2018-01-15T17:05:32.643Z,6.57
2018-01-15T17:06:32.679Z,6.67
2018-01-15T17:08:25.662Z,6.64
2018-01-15T17:09:25.727Z,6.62
2018-01-15T17:11:18.719Z,6.77
2018-01-15T17:12:18.756Z,6.70
2018-01-15T17:14:11.756Z,6.75
2018-01-15T17:15:11.792Z,6.78
2018-01-15T17:17:04.772Z,6.74
2018-01-15T17:18:04.832Z,6.74
2018-01-15T17:19:57.827Z,6.79
2018-01-15T17:20:57.860Z,6.79
2018-01-15T17:22:50.843Z,6.77
2018-01-15T17:23:50.893Z,6.79
2018-01-15T17:25:43.909Z,6.82
2018-01-15T17:26:43.927Z,6.75
2018-01-15T17:28:36.935Z,6.77
2018-01-15T17:29:36.990Z,6.74
2018-01-15T17:31:30.498Z,6.69
2018-01-15T17:32:30.529Z,6.75
2018-01-15T17:34:23.534Z,6.72
2018-01-15T17:35:23.564Z,6.62
2018-01-15T17:37:16.545Z,6.70
2018-01-15T17:38:16.600Z,6.57
2018-01-15T17:40:09.601Z,6.59
2018-01-15T17:41:09.647Z,6.54
2018-01-15T17:43:02.665Z,6.59
2018-01-15T17:44:02.750Z,6.54
2018-01-15T17:45:55.672Z,6.62
2018-01-15T17:46:55.706Z,6.54
2018-01-15T17:48:48.797Z,6.54
2018-01-15T17:49:48.746Z,6.62
2018-01-15T17:51:41.761Z,6.54
2018-01-15T17:52:41.789Z,6.59
2018-01-15T17:54:34.850Z,6.51
2018-01-15T17:55:34.877Z,6.54
2018-01-15T17:57:27.919Z,6.54
2018-01-15T17:58:27.858Z,6.59
2018-01-15T18:00:20.860Z,6.59
2018-01-15T18:01:20.896Z,6.51
2018-01-15T18:03:13.875Z,6.45
2018-01-15T18:04:13.934Z,6.59
2018-01-15T18:06:06.930Z,6.60
2018-01-15T18:07:06.987Z,6.56
2018-01-15T18:09:00.066Z,6.52
2018-01-15T18:10:00.005Z,6.52
2018-01-15T18:11:53.004Z,6.51
2018-01-15T18:12:53.043Z,6.51
2018-01-15T18:14:46.110Z,6.54
2018-01-15T18:15:46.113Z,6.60
2018-01-15T18:17:39.065Z,6.59
2018-01-15T18:18:39.118Z,6.51
2018-01-15T18:20:32.114Z,6.52
2018-01-15T18:21:32.150Z,6.48
2018-01-15T18:23:25.124Z,6.52
2018-01-15T18:24:25.180Z,6.46
2018-01-15T18:26:18.205Z,6.48
2018-01-15T18:27:18.212Z,6.56
2018-01-15T18:29:11.186Z,6.52
2018-01-15T18:30:11.264Z,6.33
2018-01-15T18:32:04.275Z,6.36
2018-01-15T18:33:04.365Z,6.36
2018-01-15T18:34:57.335Z,6.42
2018-01-15T18:35:57.351Z,6.42
2018-01-15T18:37:50.328Z,6.30
2018-01-15T18:38:50.379Z,6.30
2018-01-15T18:40:43.375Z,6.20
2018-01-15T18:41:43.409Z,6.22
2018-01-15T18:43:36.453Z,6.24
2018-01-15T18:44:36.440Z,6.27
2018-01-15T18:46:29.446Z,6.33
2018-01-15T18:47:29.484Z,6.22
2018-01-15T18:49:22.475Z,6.19
2018-01-15T18:50:22.513Z,6.24
2018-01-15T18:52:15.510Z,6.27
2018-01-15T18:53:15.544Z,6.24
2018-01-15T18:55:08.547Z,6.31
2018-01-15T18:56:08.577Z,6.28
2018-01-15T18:58:01.550Z,6.27
2018-01-15T18:59:01.613Z,6.22
2018-01-15T19:00:54.602Z,6.28
2018-01-15T19:01:54.637Z,6.24
2018-01-15T19:03:47.615Z,6.28
2018-01-15T19:04:47.670Z,6.24
2018-01-15T19:06:40.666Z,6.24
2018-01-15T19:07:40.700Z,6.22
2018-01-15T19:09:33.680Z,6.31